Time;durP1;ratioP1;P1;durP2;ratioP2;P2;SDS_P1;SDS_P2;PMS_P1;PMS_P2;Temp;Humidity;BMP_temperature;BMP_pressure;BME280_temperature;BME280_humidity;BME280_pressure;Samples;Min_cycle;Max_cycle;Signal;HPM_P1;HPM_P2
2022/07/18 00:00:06;;;;;;;3.20;2.40;;;16.00;80.40;;;;;;5035915;28;20168;-90
2022/07/18 00:02:31;;;;;;;4.55;2.05;;;16.00;80.60;;;;;;5033967;28;20242;-90
2022/07/18 00:04:57;;;;;;;7.55;2.42;;;16.00;80.90;;;;;;5034606;28;20647;-90
2022/07/18 00:07:23;;;;;;;3.10;1.75;;;16.00;81.20;;;;;;5039235;28;20304;-90
2022/07/18 00:09:48;;;;;;;5.32;3.35;;;16.00;81.10;;;;;;5034888;28;20226;-90
2022/07/18 00:12:14;;;;;;;3.65;2.10;;;16.00;80.90;;;;;;5034560;28;20202;-90
2022/07/18 00:14:40;;;;;;;5.82;2.10;;;16.00;80.90;;;;;;5035954;28;20169;-91
2022/07/18 00:17:07;;;;;;;3.95;2.13;;;15.90;80.60;;;;;;5034407;28;20297;-90
2022/07/18 00:19:32;;;;;;;2.53;1.77;;;16.00;80.20;;;;;;5034240;28;20177;-90
2022/07/18 00:21:58;;;;;;;4.70;1.70;;;15.90;79.80;;;;;;5033938;28;20700;-90
2022/07/18 00:24:23;;;;;;;8.35;2.33;;;16.00;79.50;;;;;;5034139;28;20169;-89
2022/07/18 00:26:49;;;;;;;6.38;2.30;;;16.00;79.20;;;;;;5034273;28;20189;-90
2022/07/18 00:29:14;;;;;;;14.10;2.88;;;15.90;79.70;;;;;;5033958;28;20173;-89
2022/07/18 00:31:40;;;;;;;4.03;1.92;;;15.70;80.10;;;;;;5034070;28;20176;-90
2022/07/18 00:34:05;;;;;;;3.53;2.13;;;15.70;80.40;;;;;;5033802;28;20184;-90
2022/07/18 00:36:31;;;;;;;2.65;1.95;;;15.60;80.50;;;;;;5033875;28;20223;-90
2022/07/18 00:38:58;;;;;;;3.65;2.40;;;15.60;80.30;;;;;;5033777;28;20204;-89
2022/07/18 00:41:24;;;;;;;6.63;2.00;;;15.60;79.90;;;;;;5033952;28;20230;-90
2022/07/18 00:43:51;;;;;;;4.35;2.20;;;15.60;79.70;;;;;;5033825;28;20548;-90
2022/07/18 00:46:21;;;;;;;5.15;2.20;;;15.50;79.40;;;;;;5033525;28;20632;-90
2022/07/18 00:48:46;;;;;;;4.80;1.83;;;15.50;79.40;;;;;;5033676;28;20215;-90
2022/07/18 00:51:12;;;;;;;6.72;2.00;;;15.50;79.30;;;;;;5033834;28;20181;-90
2022/07/18 00:53:37;;;;;;;5.80;2.20;;;15.40;79.90;;;;;;5033495;28;20260;-90
2022/07/18 00:56:04;;;;;;;6.28;1.90;;;15.20;80.40;;;;;;5033241;28;20650;-90
2022/07/18 00:58:30;;;;;;;3.03;1.92;;;15.20;80.30;;;;;;5033436;28;20525;-89
2022/07/18 01:03:40;;;;;;;3.00;2.13;;;15.20;80.00;;;;;;5034800;28;20226;-90
2022/07/18 01:06:06;;;;;;;7.53;2.28;;;15.20;79.80;;;;;;5033483;28;20631;-90
2022/07/18 01:08:32;;;;;;;6.25;2.03;;;15.20;79.60;;;;;;5033523;28;20259;-90
2022/07/18 01:10:58;;;;;;;11.45;2.38;;;15.20;79.50;;;;;;5033235;28;20654;-90
2022/07/18 01:13:24;;;;;;;6.55;2.53;;;15.20;79.30;;;;;;5034337;28;20169;-90
2022/07/18 01:15:50;;;;;;;4.97;2.05;;;15.20;79.40;;;;;;5033013;28;20177;-90
2022/07/18 01:18:16;;;;;;;8.95;2.53;;;15.10;79.20;;;;;;5033909;28;20576;-90
2022/07/18 01:20:42;;;;;;;9.82;2.35;;;15.10;79.30;;;;;;5033646;28;20197;-90
2022/07/18 01:23:08;;;;;;;5.72;2.20;;;15.20;79.30;;;;;;5033214;28;20538;-90
2022/07/18 01:25:33;;;;;;;3.40;2.47;;;15.20;79.20;;;;;;5033247;28;20208;-90
2022/07/18 01:27:59;;;;;;;7.75;2.47;;;15.10;79.20;;;;;;5032659;28;20699;-90
2022/07/18 01:30:25;;;;;;;2.55;2.35;;;15.10;79.80;;;;;;5032761;28;20592;-90
2022/07/18 01:32:58;;;;;;;5.72;2.42;;;15.00;80.20;;;;;;5032734;28;20219;-90
2022/07/18 01:35:26;;;;;;;4.50;2.88;;;15.00;80.30;;;;;;5032825;28;20180;-90
2022/07/18 01:37:52;;;;;;;7.07;2.67;;;15.00;80.60;;;;;;5032993;28;20232;-90
2022/07/18 01:40:18;;;;;;;6.60;2.75;;;14.90;80.90;;;;;;5032620;28;20176;-90
2022/07/18 01:42:44;;;;;;;6.47;2.30;;;15.00;81.00;;;;;;5032574;28;20185;-90
2022/07/18 01:45:10;;;;;;;4.63;2.40;;;14.90;81.50;;;;;;5034057;28;20628;-90
2022/07/18 01:47:35;;;;;;;4.55;2.72;;;14.90;81.60;;;;;;5032504;28;20197;-90
2022/07/18 01:50:01;;;;;;;4.75;2.35;;;14.90;81.60;;;;;;5033682;28;20655;-90
2022/07/18 01:52:26;;;;;;;4.13;2.20;;;14.90;81.80;;;;;;5032460;28;20224;-90
2022/07/18 01:54:52;;;;;;;6.82;2.47;;;14.90;81.90;;;;;;5032472;28;20358;-90
2022/07/18 01:57:18;;;;;;;3.20;2.20;;;14.90;81.90;;;;;;5032384;28;20239;-90
2022/07/18 01:59:43;;;;;;;7.25;2.40;;;15.00;81.80;;;;;;5033158;28;20173;-90
2022/07/18 02:02:09;;;;;;;5.88;2.47;;;14.90;81.60;;;;;;5032208;28;20223;-90
2022/07/18 02:07:19;;;;;;;2.85;2.25;;;15.00;81.50;;;;;;5033995;28;20203;-90
2022/07/18 02:09:44;;;;;;;3.10;2.47;;;15.00;81.40;;;;;;5032547;28;20172;-90
2022/07/18 02:12:10;;;;;;;9.48;2.78;;;15.00;81.20;;;;;;5032629;28;20259;-90
2022/07/18 02:14:35;;;;;;;6.82;3.00;;;14.90;81.50;;;;;;5032152;28;20208;-90
2022/07/18 02:17:01;;;;;;;5.55;2.95;;;14.90;81.60;;;;;;5032389;28;20204;-90
2022/07/18 02:19:26;;;;;;;4.65;3.20;;;14.90;81.50;;;;;;5033325;28;20172;-90
2022/07/18 02:21:52;;;;;;;6.50;3.15;;;14.90;81.40;;;;;;5033014;28;20211;-90
2022/07/18 02:24:17;;;;;;;4.95;2.80;;;14.80;81.40;;;;;;5031970;28;20169;-90
2022/07/18 02:26:43;;;;;;;5.35;2.75;;;14.90;81.30;;;;;;5031968;28;20580;-90
2022/07/18 02:29:08;;;;;;;9.93;3.00;;;14.90;81.20;;;;;;5032550;28;20212;-90
2022/07/18 02:31:34;;;;;;;7.47;3.17;;;14.90;81.10;;;;;;5033238;28;20184;-90
2022/07/18 02:34:00;;;;;;;7.03;3.05;;;14.80;81.30;;;;;;5033170;28;20180;-90
2022/07/18 02:36:25;;;;;;;8.70;3.13;;;14.70;83.20;;;;;;5032366;28;20295;-90
2022/07/18 02:38:51;;;;;;;7.45;3.10;;;14.70;83.00;;;;;;5032085;28;20181;-90
2022/07/18 02:41:16;;;;;;;8.07;3.30;;;14.70;82.80;;;;;;5031881;28;20197;-90
2022/07/18 02:43:42;;;;;;;11.35;3.17;;;14.60;82.50;;;;;;5031928;28;20172;-90
2022/07/18 02:46:07;;;;;;;11.02;3.05;;;14.40;83.40;;;;;;5031717;28;20172;-90
2022/07/18 02:48:33;;;;;;;5.38;3.03;;;14.40;83.80;;;;;;5031858;28;20246;-90
2022/07/18 02:50:58;;;;;;;11.70;3.00;;;14.40;83.60;;;;;;5037099;28;20724;-90
2022/07/18 02:53:24;;;;;;;6.15;2.72;;;14.50;83.10;;;;;;5035849;28;20646;-90
2022/07/18 02:55:50;;;;;;;3.75;2.65;;;14.50;82.80;;;;;;5035692;28;20647;-90
2022/07/18 02:58:16;;;;;;;2.97;2.50;;;14.50;82.60;;;;;;5035535;28;20197;-90
2022/07/18 03:00:42;;;;;;;5.53;2.78;;;14.50;82.50;;;;;;5035889;28;20196;-90
2022/07/18 03:03:08;;;;;;;7.80;2.88;;;14.60;82.40;;;;;;5035601;28;20219;-90
2022/07/18 03:05:33;;;;;;;7.90;2.80;;;14.50;82.60;;;;;;5035543;28;20183;-90
2022/07/18 03:07:59;;;;;;;7.30;2.72;;;14.50;83.20;;;;;;5036224;28;20195;-90
2022/07/18 03:10:24;;;;;;;15.80;4.32;;;14.40;83.50;;;;;;5035595;28;20181;-90
2022/07/18 03:12:50;;;;;;;11.00;3.33;;;14.30;84.00;;;;;;5035423;28;20234;-90
2022/07/18 03:15:16;;;;;;;5.90;2.72;;;14.30;84.30;;;;;;5035969;28;20184;-90
2022/07/18 03:17:41;;;;;;;6.88;3.30;;;14.20;84.40;;;;;;5035750;28;20282;-90
2022/07/18 03:20:07;;;;;;;9.40;3.30;;;14.20;84.40;;;;;;5035191;28;20183;-90
2022/07/18 03:22:34;;;;;;;13.45;3.97;;;14.20;84.60;;;;;;5034975;28;20177;-90
2022/07/18 03:25:00;;;;;;;8.50;3.40;;;14.20;84.80;;;;;;5035154;28;20635;-90
2022/07/18 03:27:26;;;;;;;9.27;3.17;;;14.20;85.00;;;;;;5035535;28;20197;-90
2022/07/18 03:29:51;;;;;;;7.93;3.27;;;14.20;84.90;;;;;;5035164;28;20218;-90
2022/07/18 03:32:17;;;;;;;10.55;3.20;;;14.20;84.70;;;;;;5035061;28;20763;-90
2022/07/18 03:34:43;;;;;;;11.67;3.40;;;14.20;84.60;;;;;;5034956;28;20192;-90
2022/07/18 03:37:08;;;;;;;8.43;3.07;;;14.20;84.50;;;;;;5034837;28;20200;-90
2022/07/18 03:39:34;;;;;;;7.30;3.07;;;14.30;84.30;;;;;;5034820;28;20264;-90
2022/07/18 03:41:59;;;;;;;7.95;3.53;;;14.30;84.00;;;;;;5034809;28;20650;-90
2022/07/18 03:44:25;;;;;;;9.55;4.20;;;14.30;84.10;;;;;;5034751;28;20180;-90
2022/07/18 03:46:52;;;;;;;12.25;3.90;;;14.40;83.70;;;;;;5034728;28;20193;-90
2022/07/18 03:49:17;;;;;;;8.98;3.80;;;14.40;84.00;;;;;;5034882;28;20226;-90
2022/07/18 03:51:43;;;;;;;6.97;3.67;;;14.40;83.80;;;;;;5035029;28;20662;-90
2022/07/18 03:54:09;;;;;;;7.30;3.35;;;14.30;83.50;;;;;;5034870;28;20263;-90
2022/07/18 03:56:35;;;;;;;8.25;4.13;;;14.40;83.10;;;;;;5034617;28;20224;-90
2022/07/18 03:59:01;;;;;;;6.60;3.95;;;14.30;83.40;;;;;;5035001;28;20173;-90
2022/07/18 04:01:26;;;;;;;10.98;4.35;;;14.20;84.50;;;;;;5033641;28;20207;-90
2022/07/18 04:03:52;;;;;;;11.20;4.00;;;14.20;85.40;;;;;;5034534;28;20180;-90
2022/07/18 04:06:18;;;;;;;7.28;3.85;;;14.20;85.00;;;;;;5034398;28;20565;-89
2022/07/18 04:08:43;;;;;;;8.77;4.07;;;14.20;85.00;;;;;;5034375;28;20177;-90
2022/07/18 04:11:09;;;;;;;4.93;3.50;;;14.20;85.10;;;;;;5034712;28;20635;-90
2022/07/18 04:13:35;;;;;;;8.20;3.55;;;14.20;85.30;;;;;;5035752;28;20603;-90
2022/07/18 04:16:00;;;;;;;12.15;4.35;;;14.20;85.30;;;;;;5035597;28;20242;-90
2022/07/18 04:18:26;;;;;;;7.93;4.07;;;14.20;85.40;;;;;;5034559;28;20573;-90
2022/07/18 04:20:51;;;;;;;10.77;4.40;;;14.20;85.60;;;;;;5034006;28;20200;-90
2022/07/18 04:23:18;;;;;;;6.70;4.13;;;14.10;86.40;;;;;;5034202;28;20184;-90
2022/07/18 04:25:44;;;;;;;8.77;4.90;;;14.00;87.00;;;;;;5034439;28;20176;-90
2022/07/18 04:28:11;;;;;;;7.20;4.43;;;14.10;87.10;;;;;;5034340;28;20246;-90
2022/07/18 04:30:38;;;;;;;8.50;4.40;;;14.20;87.30;;;;;;5035429;28;20706;-90
2022/07/18 04:33:06;;;;;;;5.77;4.00;;;14.20;87.50;;;;;;5034395;28;20172;-90
2022/07/18 04:35:31;;;;;;;11.77;4.40;;;14.30;87.60;;;;;;5034000;28;20600;-90
2022/07/18 04:37:57;;;;;;;8.23;4.50;;;14.30;87.70;;;;;;5034393;28;20207;-90
2022/07/18 04:40:23;;;;;;;9.37;4.73;;;14.30;87.80;;;;;;5035535;28;20188;-90
2022/07/18 04:42:49;;;;;;;11.17;4.27;;;14.30;87.80;;;;;;5034091;28;20208;-90
2022/07/18 04:45:15;;;;;;;7.67;4.23;;;14.40;87.70;;;;;;5033852;28;20175;-90
2022/07/18 04:47:41;;;;;;;9.17;4.83;;;14.40;87.70;;;;;;5034769;28;20268;-90
2022/07/18 04:50:07;;;;;;;5.07;4.17;;;14.50;87.80;;;;;;5033612;28;20247;-90
2022/07/18 04:52:40;;;;;;;12.00;4.63;;;14.60;87.70;;;;;;5034716;28;20721;-90
2022/07/18 04:55:07;;;;;;;7.43;4.57;;;14.60;87.80;;;;;;5034789;28;20169;-90
2022/07/18 04:57:34;;;;;;;14.17;4.83;;;14.60;87.70;;;;;;5033641;28;20213;-90
2022/07/18 05:00:00;;;;;;;15.90;4.53;;;14.70;87.90;;;;;;5033668;28;20219;-90
2022/07/18 05:02:25;;;;;;;10.03;5.30;;;14.80;87.80;;;;;;5033919;28;20289;-90
2022/07/18 05:04:51;;;;;;;11.20;4.93;;;14.80;87.80;;;;;;5033593;28;20205;-90
2022/07/18 05:07:16;;;;;;;8.03;4.70;;;14.90;87.90;;;;;;5033308;28;20196;-90
2022/07/18 05:09:42;;;;;;;11.47;4.73;;;14.90;87.90;;;;;;5033475;28;20169;-90
2022/07/18 05:12:07;;;;;;;13.27;4.30;;;15.00;88.00;;;;;;5033090;28;20176;-90
2022/07/18 05:14:33;;;;;;;11.05;4.18;;;15.10;88.10;;;;;;5033212;28;20199;-89
2022/07/18 05:16:59;;;;;;;12.82;4.28;;;15.10;88.10;;;;;;5033094;28;20200;-89
2022/07/18 05:19:24;;;;;;;8.63;4.43;;;15.10;88.00;;;;;;5033001;28;20177;-90
2022/07/18 05:21:50;;;;;;;9.33;4.17;;;15.10;88.00;;;;;;5032948;28;20204;-90
2022/07/18 05:24:15;;;;;;;7.22;4.47;;;15.10;87.90;;;;;;5033194;28;20169;-90
2022/07/18 05:26:41;;;;;;;4.88;4.43;;;15.20;87.90;;;;;;5032900;28;20200;-90
2022/07/18 05:29:07;;;;;;;7.90;4.88;;;15.30;87.70;;;;;;5032997;28;20176;-90
2022/07/18 05:31:32;;;;;;;9.35;3.80;;;15.30;87.50;;;;;;5032858;28;20177;-89
2022/07/18 05:33:58;;;;;;;6.32;4.35;;;15.30;87.50;;;;;;5032979;28;20713;-90
2022/07/18 05:36:24;;;;;;;7.38;4.25;;;15.50;87.50;;;;;;5033577;28;20200;-90
2022/07/18 05:38:49;;;;;;;10.65;4.38;;;15.60;87.30;;;;;;5032850;28;20617;-89
2022/07/18 05:41:15;;;;;;;5.40;4.67;;;15.70;87.00;;;;;;5033213;28;20669;-90
2022/07/18 05:43:40;;;;;;;11.33;5.17;;;15.70;86.50;;;;;;5032824;28;20227;-90
2022/07/18 05:46:06;;;;;;;7.47;4.68;;;15.70;86.00;;;;;;5032572;28;20219;-90
2022/07/18 05:48:32;;;;;;;7.80;4.20;;;15.70;85.90;;;;;;5033080;28;20264;-90
2022/07/18 05:50:57;;;;;;;8.38;4.72;;;15.90;86.00;;;;;;5033888;28;20634;-90
2022/07/18 05:53:23;;;;;;;5.68;4.43;;;16.00;85.90;;;;;;5033041;28;20184;-90
2022/07/18 05:55:48;;;;;;;9.00;4.57;;;16.20;85.60;;;;;;5032876;28;20186;-90
2022/07/18 05:58:14;;;;;;;6.03;5.00;;;16.30;85.10;;;;;;5091271;22;20710;-86
2022/07/18 06:00:40;;;;;;;5.20;4.38;;;16.40;84.50;;;;;;5032140;28;20571;-86
2022/07/18 06:03:06;;;;;;;4.88;4.03;;;16.50;83.20;;;;;;5032238;28;20548;-86
2022/07/18 06:05:31;;;;;;;8.77;4.57;;;16.60;83.10;;;;;;5032151;28;20260;-86
2022/07/18 06:07:57;;;;;;;6.10;4.57;;;16.70;82.80;;;;;;5032010;28;20200;-86
2022/07/18 06:10:25;;;;;;;8.30;4.53;;;16.70;82.70;;;;;;5032028;28;20263;-86
2022/07/18 06:12:51;;;;;;;7.75;4.68;;;16.70;82.00;;;;;;5032108;28;20690;-86
2022/07/18 06:15:16;;;;;;;6.53;4.70;;;16.70;82.00;;;;;;5032028;28;20186;-86
2022/07/18 06:17:42;;;;;;;6.57;4.75;;;16.70;82.20;;;;;;5031841;28;20283;-86
2022/07/18 06:20:08;;;;;;;5.65;4.53;;;16.80;82.30;;;;;;5033158;28;20223;-86
2022/07/18 06:22:35;;;;;;;8.40;3.95;;;17.00;82.10;;;;;;5033327;28;20200;-86
2022/07/18 06:25:01;;;;;;;7.32;4.63;;;17.10;81.70;;;;;;5032646;28;20195;-86
2022/07/18 06:27:26;;;;;;;8.68;4.20;;;17.30;81.70;;;;;;5031815;28;20224;-86
2022/07/18 06:29:52;;;;;;;4.93;4.00;;;17.50;80.90;;;;;;5033131;28;20539;-86
2022/07/18 06:32:18;;;;;;;6.10;4.60;;;17.70;79.30;;;;;;5031725;28;20184;-86
2022/07/18 06:34:43;;;;;;;7.28;3.97;;;17.80;78.90;;;;;;5031796;28;20173;-86
2022/07/18 06:37:09;;;;;;;4.38;3.63;;;17.80;77.90;;;;;;5031630;28;20662;-86
2022/07/18 06:39:34;;;;;;;5.95;4.00;;;17.80;77.90;;;;;;5032645;28;20180;-86
2022/07/18 06:42:00;;;;;;;7.05;4.90;;;17.70;78.00;;;;;;5031692;28;20208;-86
2022/07/18 06:44:25;;;;;;;8.65;4.22;;;17.80;77.40;;;;;;5031776;28;20179;-86
2022/07/18 06:46:52;;;;;;;6.63;4.47;;;17.80;76.70;;;;;;5033112;28;20188;-86
2022/07/18 06:49:18;;;;;;;6.32;4.32;;;18.00;76.80;;;;;;5031651;28;20176;-86
2022/07/18 06:51:43;;;;;;;7.00;3.95;;;18.10;77.40;;;;;;5032880;28;20682;-86
2022/07/18 06:54:09;;;;;;;7.05;3.95;;;18.30;76.60;;;;;;5031586;28;20189;-86
2022/07/18 06:56:35;;;;;;;7.05;4.20;;;18.20;76.10;;;;;;5031560;28;20268;-85
2022/07/18 06:59:00;;;;;;;6.25;4.68;;;18.30;76.40;;;;;;5031349;28;20690;-86
2022/07/18 07:01:26;;;;;;;6.75;4.57;;;18.30;76.10;;;;;;5031453;28;20209;-85
2022/07/18 07:03:52;;;;;;;7.30;4.53;;;18.40;75.80;;;;;;5031620;28;20223;-85
2022/07/18 07:06:17;;;;;;;7.75;4.68;;;18.40;75.80;;;;;;5032693;28;20177;-85
2022/07/18 07:08:44;;;;;;;9.70;4.13;;;18.50;75.30;;;;;;5032640;28;20192;-85
2022/07/18 07:11:09;;;;;;;9.02;4.35;;;18.70;75.90;;;;;;5032703;28;20247;-84
2022/07/18 07:13:35;;;;;;;6.45;3.88;;;18.90;76.30;;;;;;5031393;28;20647;-85
2022/07/18 07:16:01;;;;;;;6.57;4.15;;;19.10;74.90;;;;;;5031332;28;20173;-85
2022/07/18 07:18:26;;;;;;;5.53;3.88;;;19.20;72.50;;;;;;5031163;28;20571;-85
2022/07/18 07:20:52;;;;;;;8.38;4.68;;;19.40;73.10;;;;;;5032434;28;20597;-85
2022/07/18 07:23:18;;;;;;;8.70;4.32;;;19.40;72.30;;;;;;5031251;28;20651;-85
2022/07/18 07:25:43;;;;;;;7.28;4.22;;;19.50;72.40;;;;;;5032490;28;20199;-85
2022/07/18 07:28:09;;;;;;;8.05;4.22;;;19.60;72.20;;;;;;5032588;28;20185;-85
2022/07/18 07:30:35;;;;;;;7.57;4.65;;;19.70;70.10;;;;;;5032745;28;20227;-85
2022/07/18 07:33:01;;;;;;;5.88;4.38;;;19.80;71.50;;;;;;5031306;28;20268;-86
2022/07/18 07:35:27;;;;;;;6.75;4.18;;;19.70;69.70;;;;;;5031216;28;20663;-85
2022/07/18 07:37:56;;;;;;;5.13;3.80;;;19.80;70.60;;;;;;5034308;28;20208;-85
2022/07/18 07:40:24;;;;;;;3.83;3.40;;;19.90;69.50;;;;;;5034574;28;20176;-85
2022/07/18 07:42:50;;;;;;;6.25;4.03;;;20.10;68.70;;;;;;5034675;28;20208;-85
2022/07/18 07:45:16;;;;;;;9.07;4.43;;;20.20;68.10;;;;;;5035845;28;20169;-85
2022/07/18 07:47:42;;;;;;;5.90;4.15;;;20.30;69.10;;;;;;5034452;28;20193;-85
2022/07/18 07:50:09;;;;;;;8.13;4.00;;;20.40;68.00;;;;;;5034504;28;20708;-85
2022/07/18 07:52:35;;;;;;;5.70;3.97;;;20.40;68.30;;;;;;5034447;28;20185;-85
2022/07/18 07:55:01;;;;;;;9.23;4.03;;;20.50;69.20;;;;;;5034409;28;20218;-85
2022/07/18 07:57:27;;;;;;;5.38;3.50;;;20.50;66.30;;;;;;5034332;28;20785;-85
2022/07/18 07:59:53;;;;;;;8.40;3.60;;;20.50;67.30;;;;;;5034324;28;20173;-85
2022/07/18 08:02:19;;;;;;;5.68;3.90;;;20.60;67.00;;;;;;5035421;28;20621;-85
2022/07/18 08:04:44;;;;;;;5.75;3.88;;;20.70;66.60;;;;;;5035667;28;20176;-85
2022/07/18 08:07:11;;;;;;;7.18;3.63;;;20.80;68.10;;;;;;5034363;28;20568;-86
2022/07/18 08:09:36;;;;;;;7.18;3.65;;;20.80;66.80;;;;;;5035619;28;20173;-86
2022/07/18 08:12:02;;;;;;;7.03;3.17;;;20.80;67.00;;;;;;5034408;28;20184;-85
2022/07/18 08:14:28;;;;;;;4.40;3.63;;;20.80;65.80;;;;;;5035538;28;20204;-86
2022/07/18 08:16:53;;;;;;;6.63;3.72;;;20.90;67.60;;;;;;5034195;28;20647;-86
2022/07/18 08:19:19;;;;;;;7.22;3.05;;;20.90;66.40;;;;;;5035633;28;20169;-86
2022/07/18 08:21:45;;;;;;;5.90;3.35;;;21.10;63.60;;;;;;5035473;28;20666;-86
2022/07/18 08:24:11;;;;;;;6.18;3.03;;;21.20;63.80;;;;;;5035934;28;20173;-86
2022/07/18 08:26:39;;;;;;;5.32;2.90;;;21.30;64.80;;;;;;5035886;28;20180;-86
2022/07/18 08:29:05;;;;;;;5.57;2.78;;;21.50;63.40;;;;;;5035238;28;20681;-84
2022/07/18 08:31:31;;;;;;;6.25;2.80;;;21.50;61.40;;;;;;5035273;28;20543;-85
2022/07/18 08:33:56;;;;;;;7.63;2.92;;;21.70;61.80;;;;;;5035459;28;20173;-85
2022/07/18 08:36:22;;;;;;;4.45;2.78;;;21.80;61.40;;;;;;5035235;28;20176;-85
2022/07/18 08:38:48;;;;;;;6.38;2.67;;;22.00;60.70;;;;;;5035011;28;20275;-85
2022/07/18 08:41:16;;;;;;;5.80;2.58;;;22.00;60.50;;;;;;5034847;28;20204;-85
2022/07/18 08:43:42;;;;;;;7.40;2.53;;;21.80;58.60;;;;;;5035040;28;20685;-84
2022/07/18 08:46:08;;;;;;;8.30;2.70;;;21.70;60.60;;;;;;5033926;28;20541;-86
2022/07/18 08:48:35;;;;;;;4.45;2.63;;;21.90;61.90;;;;;;5033310;28;20569;-85
2022/07/18 08:51:01;;;;;;;5.10;2.17;;;22.10;60.10;;;;;;5034875;28;20177;-85
2022/07/18 08:53:27;;;;;;;10.85;2.95;;;22.20;59.80;;;;;;5034738;28;20177;-86
2022/07/18 08:55:53;;;;;;;3.28;2.67;;;22.30;60.30;;;;;;5034682;28;20263;-85
2022/07/18 08:58:19;;;;;;;4.40;2.40;;;22.40;58.80;;;;;;5033355;28;20243;-86
2022/07/18 09:00:45;;;;;;;4.82;2.72;;;22.40;60.00;;;;;;5033193;28;20616;-85
2022/07/18 09:03:11;;;;;;;4.32;2.30;;;22.50;60.30;;;;;;5033407;28;20188;-85
2022/07/18 09:05:37;;;;;;;4.78;2.33;;;22.70;59.60;;;;;;5034462;28;20177;-88
2022/07/18 09:08:09;;;;;;;6.50;3.22;;;22.70;59.20;;;;;;5034341;28;20192;-87
2022/07/18 09:10:56;;;;;;;5.88;3.10;;;22.70;59.40;;;;;;5033136;28;20192;-88
2022/07/18 09:13:24;;;;;;;8.98;2.95;;;22.90;57.10;;;;;;5034277;28;20165;-86
2022/07/18 09:16:03;;;;;;;7.32;2.53;;;22.80;58.80;;;;;;5033033;28;20169;-88
2022/07/18 09:18:29;;;;;;;6.00;2.78;;;22.90;57.80;;;;;;5032901;28;20192;-86
2022/07/18 09:21:09;;;;;;;4.90;2.50;;;23.00;58.20;;;;;;5032775;28;20286;-86
2022/07/18 09:23:37;;;;;;;2.45;2.22;;;23.00;55.50;;;;;;5033664;28;20175;-86
2022/07/18 09:26:03;;;;;;;8.02;2.63;;;23.10;55.50;;;;;;5032855;28;20177;-87
2022/07/18 09:28:46;;;;;;;4.95;2.40;;;23.20;57.70;;;;;;5032557;28;20617;-86
2022/07/18 09:31:20;;;;;;;4.85;2.67;;;23.30;56.10;;;;;;5032804;28;20558;-86
2022/07/18 09:33:57;;;;;;;5.30;2.75;;;23.40;54.10;;;;;;5032624;28;20173;-86
2022/07/18 09:36:23;;;;;;;3.47;2.35;;;23.20;55.10;;;;;;5033908;28;20175;-87
2022/07/18 09:38:49;;;;;;;3.72;2.53;;;23.20;56.60;;;;;;5032520;28;20196;-87
2022/07/18 09:41:15;;;;;;;8.40;2.70;;;23.80;55.10;;;;;;5032429;28;20254;-87
2022/07/18 09:43:41;;;;;;;7.50;3.38;;;23.50;53.40;;;;;;5032628;28;20574;-87
2022/07/18 09:46:08;;;;;;;6.55;3.05;;;23.30;53.70;;;;;;5033913;28;20176;-86
2022/07/18 09:48:34;;;;;;;11.60;3.95;;;23.40;53.00;;;;;;5032452;28;20197;-86
2022/07/18 09:51:07;;;;;;;5.85;3.58;;;23.20;52.60;;;;;;5032520;28;20180;-86
2022/07/18 09:53:37;;;;;;;7.15;3.65;;;23.20;52.80;;;;;;5032542;28;20183;-85
2022/07/18 09:56:08;;;;;;;6.88;3.33;;;23.50;53.90;;;;;;5033689;28;20191;-86
2022/07/18 09:58:36;;;;;;;4.78;3.05;;;23.70;53.10;;;;;;5032955;28;20694;-86
2022/07/18 10:01:05;;;;;;;14.30;3.40;;;23.90;55.20;;;;;;5032179;28;20232;-85
2022/07/18 10:03:31;;;;;;;6.13;3.35;;;23.90;53.30;;;;;;5033528;28;20169;-86
2022/07/18 10:06:00;;;;;;;5.65;3.40;;;23.80;52.50;;;;;;5032435;28;20522;-86
2022/07/18 10:08:29;;;;;;;3.22;2.78;;;24.20;53.60;;;;;;5033392;28;20192;-86
2022/07/18 10:10:58;;;;;;;7.05;3.13;;;23.90;52.80;;;;;;5032268;28;20180;-86
2022/07/18 10:13:25;;;;;;;5.57;3.58;;;24.00;52.00;;;;;;5032137;28;20185;-86
2022/07/18 10:15:51;;;;;;;5.45;4.18;;;24.20;53.20;;;;;;5032170;28;20177;-86
2022/07/18 10:18:22;;;;;;;11.63;4.07;;;24.20;50.60;;;;;;5032005;28;20215;-85
2022/07/18 10:20:57;;;;;;;10.07;3.95;;;24.40;53.10;;;;;;5033152;28;20184;-85
2022/07/18 10:23:46;;;;;;;7.97;4.45;;;24.80;52.20;;;;;;5032118;28;20168;-85
2022/07/18 10:26:25;;;;;;;7.88;4.75;;;24.70;51.80;;;;;;5031971;28;20176;-85
2022/07/18 10:29:00;;;;;;;8.55;4.38;;;24.80;50.60;;;;;;5033255;28;20188;-85
2022/07/18 10:31:39;;;;;;;9.98;4.57;;;24.50;50.30;;;;;;5032104;28;20238;-85
2022/07/18 10:34:11;;;;;;;7.05;4.30;;;24.50;51.10;;;;;;5032888;28;20169;-84
2022/07/18 10:36:51;;;;;;;7.50;5.22;;;24.70;51.90;;;;;;5032605;28;20605;-85
2022/07/18 10:39:25;;;;;;;6.93;4.97;;;24.70;52.20;;;;;;5033994;28;20255;-85
2022/07/18 10:41:54;;;;;;;6.28;5.05;;;24.60;50.80;;;;;;5032523;28;20200;-86
2022/07/18 10:44:31;;;;;;;9.82;4.75;;;24.80;50.60;;;;;;5033797;28;20173;-86
2022/07/18 10:47:03;;;;;;;5.68;4.55;;;25.30;51.30;;;;;;5032202;28;20314;-86
2022/07/18 10:49:49;;;;;;;5.63;4.35;;;25.60;50.10;;;;;;5033596;28;20169;-85
2022/07/18 10:52:24;;;;;;;5.00;4.20;;;25.50;49.00;;;;;;5032797;28;20177;-85
2022/07/18 10:55:05;;;;;;;6.88;4.78;;;25.40;49.50;;;;;;5034115;28;20180;-86
2022/07/18 10:57:50;;;;;;;7.65;4.43;;;25.20;50.20;;;;;;5032454;28;20614;-85
2022/07/18 11:00:23;;;;;;;6.72;4.88;;;25.20;51.70;;;;;;5032368;28;20168;-85
2022/07/18 11:03:04;;;;;;;5.32;4.38;;;25.20;50.60;;;;;;5032566;28;20177;-85
2022/07/18 11:05:29;;;;;;;6.85;4.55;;;25.20;51.10;;;;;;5033040;28;20173;-85
2022/07/18 11:08:01;;;;;;;8.50;4.53;;;25.50;51.30;;;;;;5032954;28;20193;-84
2022/07/18 11:10:41;;;;;;;7.78;5.00;;;25.60;50.40;;;;;;5035635;28;20222;-84
2022/07/18 11:13:29;;;;;;;5.68;4.55;;;25.20;51.20;;;;;;5037445;28;20176;-84
2022/07/18 11:16:14;;;;;;;7.85;4.50;;;25.40;51.00;;;;;;5038094;28;20338;-85
2022/07/18 11:18:43;;;;;;;6.80;4.32;;;25.50;49.90;;;;;;5038372;28;20192;-85
2022/07/18 11:21:26;;;;;;;7.32;5.20;;;25.90;51.40;;;;;;5035853;28;20242;-85
2022/07/18 11:24:07;;;;;;;6.95;4.68;;;25.90;48.90;;;;;;5035550;28;20223;-85
2022/07/18 11:26:33;;;;;;;7.25;5.30;;;25.80;47.30;;;;;;5035803;28;20623;-86
2022/07/18 11:29:20;;;;;;;7.00;5.45;;;26.10;47.10;;;;;;5035945;28;20204;-85
2022/07/18 11:31:53;;;;;;;8.27;4.95;;;26.10;48.70;;;;;;5037505;28;20212;-84
2022/07/18 11:34:19;;;;;;;9.15;5.43;;;26.40;49.50;;;;;;5036131;28;20173;-85
2022/07/18 11:36:46;;;;;;;7.57;5.10;;;26.40;47.10;;;;;;5036913;28;20177;-85
2022/07/18 11:39:13;;;;;;;5.13;4.55;;;26.40;48.90;;;;;;5035936;28;20188;-86
2022/07/18 11:41:40;;;;;;;9.40;5.38;;;26.40;45.70;;;;;;5037282;28;20572;-85
2022/07/18 11:44:18;;;;;;;5.72;4.95;;;26.40;47.20;;;;;;5037242;28;20169;-85
2022/07/18 11:46:44;;;;;;;6.10;4.78;;;26.20;47.70;;;;;;5036349;28;20646;-85
2022/07/18 11:49:10;;;;;;;7.85;4.97;;;26.60;48.50;;;;;;5036926;28;20535;-85
2022/07/18 11:51:41;;;;;;;7.20;5.20;;;26.50;46.20;;;;;;5036816;28;20184;-85
2022/07/18 11:54:08;;;;;;;14.07;5.70;;;26.70;46.70;;;;;;5035382;28;20179;-85
2022/07/18 11:56:48;;;;;;;8.48;5.78;;;26.40;46.70;;;;;;5035721;28;20184;-86
2022/07/18 11:59:15;;;;;;;8.32;5.68;;;26.50;48.40;;;;;;5039417;28;20180;-85
2022/07/18 12:01:41;;;;;;;6.07;4.55;;;26.30;46.50;;;;;;5037464;28;20682;-86
2022/07/18 12:04:14;;;;;;;9.75;5.18;;;26.60;48.00;;;;;;5037348;28;20185;-86
2022/07/18 12:06:40;;;;;;;7.40;5.00;;;26.80;48.30;;;;;;5038039;28;20171;-86
2022/07/18 12:09:06;;;;;;;6.03;4.82;;;26.70;44.50;;;;;;5039050;28;20192;-85
2022/07/18 12:11:36;;;;;;;10.73;5.15;;;26.40;47.10;;;;;;5036887;28;20176;-85
2022/07/18 12:14:12;;;;;;;6.38;4.70;;;26.40;46.50;;;;;;5040258;28;20176;-85
2022/07/18 12:16:56;;;;;;;6.03;4.90;;;26.60;46.00;;;;;;5039052;28;20549;-85
2022/07/18 12:19:31;;;;;;;7.05;4.78;;;26.70;47.40;;;;;;5038628;28;20179;-85
2022/07/18 12:22:08;;;;;;;6.22;4.25;;;27.20;47.60;;;;;;5037300;28;20184;-86
2022/07/18 12:24:37;;;;;;;4.75;4.25;;;27.10;46.70;;;;;;5035804;28;20651;-86
2022/07/18 12:27:20;;;;;;;7.95;4.80;;;26.90;45.80;;;;;;5035716;28;20193;-86
2022/07/18 12:30:11;;;;;;;7.28;4.57;;;26.90;45.60;;;;;;5035981;28;20635;-87
2022/07/18 12:32:40;;;;;;;5.93;4.28;;;27.10;45.80;;;;;;5035870;28;20263;-86
2022/07/18 12:35:13;;;;;;;6.85;4.75;;;27.30;44.70;;;;;;5036978;28;20169;-86
2022/07/18 12:37:39;;;;;;;4.70;4.25;;;27.00;45.90;;;;;;5037710;28;20725;-86
2022/07/18 12:40:10;;;;;;;5.90;4.25;;;27.00;44.90;;;;;;5036783;28;20181;-86
2022/07/18 12:42:39;;;;;;;7.97;4.68;;;26.90;44.60;;;;;;5039212;28;20239;-86
2022/07/18 12:45:06;;;;;;;8.07;5.05;;;26.80;45.90;;;;;;5037023;28;20549;-86
2022/07/18 12:47:32;;;;;;;4.88;3.85;;;27.00;46.70;;;;;;5037629;28;20619;-86
2022/07/18 12:49:58;;;;;;;4.85;3.95;;;27.00;45.60;;;;;;5036201;28;20185;-86
2022/07/18 12:52:24;;;;;;;5.40;4.57;;;26.80;45.00;;;;;;5035278;28;20273;-87